logo dgac
Miércoles 20 de Marzo del 2019
Buscar por aerodromo o helipuerto
Ingrese nombre de aeródromo, localidad o designador OACI:

Aeródromo: Pichoy (PUB) (SCVD)

Ubicación: Valdivia, XIV Región, Chile (39º 38' 58'' S, 73º 05' 11'' W) Ver ubicación en el mapa

Pistas

Orientación Dimensión Pendiente Superficie Resistencia APCH THR RWY PAPI
17/35 2100 x 45 0,07 ASPH PCN 57 F/C/W/T Sí (3º)
Horas de operación HJ
Elevación 18 m / 59 ft
Otra Información Adm : DGAC
Uso : PUB
TEL : (56-63)2314302 FAX (56-63)2314316 Anexos ARO 4306/4307
Ubicado a 32 km NE de Valdivia

Otra información ver AIP-Chile Volumen I AD 3.9-20.1-V




CCCM/FCCV Descargar
andera de Chile
Mapa de Pichoy (PUB) (SCVD)

Último METAR

METAR SCVD 210000Z AUTO VRB01KT CAVOK 14/08 Q1017

Último TAF

TAF SCVD 201010Z 2012/2024 VRB03KT CAVOK TN02/2012Z TX21/2019Z BECMG 2013/2015 15005KT BECMG 2015/2017 18010KT

Últimas fotos cámaras

Imagen aerodromo Pichoy (PUB) (SCVD) Norte tomada el 19-03-2019 04:45:33 Imagen aerodromo Pichoy (PUB) (SCVD) Sur tomada el 19-03-2019 02:15:17

Último NOTAM

C0807/19 NOTAMR C0624/19 Q)SCTZ/QSTAH/IV/NBO/A/000/999/3939S07305W005 A)SCVD B)1903121731 C)1906122359 D)MAR 12-31 MON-SUN-HOL BTN 1200-2100 APR 1-6 BTN 1400-2300 APR 7-JUN 12 BTN 1500-2359 E)HR ATTN SER TWR

LLegadas a Pichoy (PUB) (SCVD)

En vuelo

Vuelo Procedencia Hora Despegue Local Hora Arribo Local

Salidas de Pichoy (PUB) (SCVD)

En vuelo

Vuelo Hacia Hora Despegue Local Hora Arribo Local